Time;durP1;ratioP1;P1;durP2;ratioP2;P2;SDS_P1;SDS_P2;PMS_P1;PMS_P2;Temp;Humidity;BMP_temperature;BMP_pressure;BME280_temperature;BME280_humidity;BME280_pressure;Samples;Min_cycle;Max_cycle;Signal;HPM_P1;HPM_P2
2023/03/07 00:01:28;;;;;;;19.60;11.93;;;;;;;2.66;100.00;97650.13;4996408;28;20187;-79
2023/03/07 00:03:57;;;;;;;21.43;12.67;;;;;;;2.51;100.00;97646.59;4989467;28;20638;-80
2023/03/07 00:06:26;;;;;;;22.23;12.80;;;;;;;2.56;100.00;97650.66;4997467;28;20244;-80
2023/03/07 00:09:00;;;;;;;21.13;12.93;;;;;;;2.66;100.00;97655.34;4999759;28;20199;-80
2023/03/07 00:11:29;;;;;;;21.97;12.40;;;;;;;2.63;100.00;97645.09;4999692;28;20250;-79
2023/03/07 00:13:58;;;;;;;19.37;11.23;;;;;;;2.47;100.00;97648.53;5037985;28;20211;-79
2023/03/07 00:16:27;;;;;;;21.83;13.40;;;;;;;2.31;100.00;97652.91;5001260;28;20203;-79
2023/03/07 00:18:56;;;;;;;21.83;12.97;;;;;;;2.37;100.00;97641.31;5002541;28;20198;-79
2023/03/07 00:21:30;;;;;;;23.60;13.00;;;;;;;2.41;100.00;97638.41;4999150;28;20650;-79
2023/03/07 00:23:59;;;;;;;21.83;12.53;;;;;;;2.42;100.00;97637.53;5050245;28;20276;-79
2023/03/07 00:26:28;;;;;;;24.27;13.97;;;;;;;2.21;100.00;97633.47;5046988;28;20200;-79
2023/03/07 00:28:56;;;;;;;22.40;12.57;;;;;;;2.40;100.00;97630.69;5050497;28;20658;-79
2023/03/07 00:31:25;;;;;;;24.07;13.60;;;;;;;2.41;100.00;97624.53;5049125;28;20203;-78
2023/03/07 00:33:53;;;;;;;25.63;13.53;;;;;;;2.39;100.00;97629.84;5047450;28;20198;-80
2023/03/07 00:36:23;;;;;;;22.33;13.00;;;;;;;2.34;100.00;97617.97;5049076;28;20201;-79
2023/03/07 00:38:52;;;;;;;21.27;13.17;;;;;;;2.39;100.00;97615.94;5049448;28;20209;-79
2023/03/07 00:41:23;;;;;;;22.20;13.60;;;;;;;2.46;100.00;97615.50;5039105;28;20256;-79
2023/03/07 00:43:51;;;;;;;24.93;13.47;;;;;;;2.53;100.00;97619.47;5002937;28;20268;-79
2023/03/07 00:46:22;;;;;;;25.77;14.63;;;;;;;2.42;100.00;97616.63;5001782;28;20211;-79
2023/03/07 00:48:51;;;;;;;25.57;14.63;;;;;;;2.38;100.00;97611.63;5005044;28;20416;-78
2023/03/07 00:51:20;;;;;;;25.00;14.20;;;;;;;2.40;100.00;97604.56;4994377;28;20188;-78
2023/03/07 00:53:49;;;;;;;23.63;14.13;;;;;;;2.19;100.00;97602.22;5000707;28;20228;-79
2023/03/07 00:56:23;;;;;;;26.57;14.50;;;;;;;2.20;100.00;97593.44;4999722;28;20207;-78
2023/03/07 00:58:52;;;;;;;26.43;14.77;;;;;;;2.20;100.00;97590.84;5003341;28;20195;-78
2023/03/07 01:01:24;;;;;;;25.87;15.23;;;;;;;2.23;100.00;97590.69;5003200;28;20213;-78
2023/03/07 01:03:53;;;;;;;27.13;15.10;;;;;;;2.25;100.00;97574.94;4998409;28;20246;-78
2023/03/07 01:06:24;;;;;;;25.73;14.33;;;;;;;2.17;100.00;97582.34;5002600;28;20227;-79
2023/03/07 01:11:37;;;;;;;33.03;18.90;;;;;;;2.21;100.00;97576.00;5032180;23;20743;-78
2023/03/07 01:14:06;;;;;;;24.33;14.67;;;;;;;2.19;100.00;97577.88;5010041;28;20209;-78
2023/03/07 01:16:36;;;;;;;27.57;15.50;;;;;;;2.21;100.00;97573.41;5012850;28;20202;-78
2023/03/07 01:19:07;;;;;;;25.53;14.87;;;;;;;2.21;100.00;97574.22;5015466;28;20282;-79
2023/03/07 01:21:36;;;;;;;27.63;15.43;;;;;;;2.18;100.00;97570.97;5014636;28;20648;-78
2023/03/07 01:24:05;;;;;;;27.30;16.03;;;;;;;2.19;100.00;97563.03;5010998;28;20581;-78
2023/03/07 01:26:34;;;;;;;29.57;16.00;;;;;;;2.16;100.00;97560.59;5008218;28;20216;-79
2023/03/07 01:29:07;;;;;;;27.33;16.13;;;;;;;2.26;100.00;97558.31;5014212;28;20765;-78
2023/03/07 01:31:35;;;;;;;26.33;15.37;;;;;;;2.20;100.00;97548.22;4932205;29;20201;-78
2023/03/07 01:34:04;;;;;;;32.30;16.53;;;;;;;2.23;100.00;97551.50;4928407;29;20299;-78
2023/03/07 01:36:34;;;;;;;29.87;16.10;;;;;;;2.21;100.00;97550.72;4924852;29;20205;-78
2023/03/07 01:39:05;;;;;;;28.80;16.97;;;;;;;2.26;100.00;97537.44;4931936;29;20411;-78
2023/03/07 01:41:34;;;;;;;30.67;17.37;;;;;;;2.16;100.00;97550.16;4933294;29;20244;-78
2023/03/07 01:44:13;;;;;;;31.97;17.50;;;;;;;2.11;100.00;97539.13;4934340;29;20221;-78
2023/03/07 01:46:45;;;;;;;30.10;16.93;;;;;;;2.20;100.00;97541.22;4931901;29;20201;-78
2023/03/07 01:49:22;;;;;;;31.87;18.00;;;;;;;2.18;100.00;97547.47;4954190;28;20194;-79
2023/03/07 01:51:54;;;;;;;31.53;17.97;;;;;;;2.18;100.00;97543.06;5013969;28;20209;-78
2023/03/07 01:54:26;;;;;;;31.47;16.47;;;;;;;2.13;100.00;97532.06;5008670;28;20206;-78
2023/03/07 01:56:55;;;;;;;37.53;21.37;;;;;;;2.07;100.00;97535.00;4995575;28;20203;-79
2023/03/07 01:59:30;;;;;;;42.90;23.67;;;;;;;2.11;100.00;97531.28;5012139;28;20194;-78
2023/03/07 02:02:01;;;;;;;43.20;22.03;;;;;;;2.04;100.00;97529.97;5013731;28;20248;-78
2023/03/07 02:04:37;;;;;;;44.13;23.23;;;;;;;2.08;100.00;97520.19;5013115;28;20300;-78
2023/03/07 02:07:08;;;;;;;74.07;38.13;;;;;;;2.07;100.00;97529.78;5012454;28;20230;-79
2023/03/07 02:09:38;;;;;;;53.90;27.27;;;;;;;2.12;100.00;97516.47;5008823;28;20190;-78
2023/03/07 02:12:09;;;;;;;39.83;21.97;;;;;;;2.13;100.00;97505.13;5012057;28;20231;-79
2023/03/07 02:14:38;;;;;;;55.07;28.17;;;;;;;2.12;100.00;97506.84;4995627;28;20209;-79
2023/03/07 02:17:07;;;;;;;45.37;24.23;;;;;;;2.08;100.00;97499.31;5007823;28;20253;-78
2023/03/07 02:19:49;;;;;;;38.60;21.13;;;;;;;2.10;100.00;97507.88;5008959;28;20206;-79
2023/03/07 02:22:19;;;;;;;64.77;32.00;;;;;;;2.15;100.00;97500.63;5003810;28;20202;-78
2023/03/07 02:24:52;;;;;;;39.70;20.40;;;;;;;2.12;100.00;97496.41;5011942;28;20222;-79
2023/03/07 02:27:24;;;;;;;36.03;20.13;;;;;;;2.19;100.00;97499.53;5013451;28;20194;-78
2023/03/07 02:29:53;;;;;;;36.17;18.60;;;;;;;2.09;100.00;97499.22;5009084;28;20206;-78
2023/03/07 02:32:21;;;;;;;33.97;19.10;;;;;;;2.18;100.00;97498.69;5012139;28;20298;-78
2023/03/07 02:34:52;;;;;;;31.20;17.73;;;;;;;2.19;100.00;97507.34;5008644;28;20194;-78
2023/03/07 02:37:25;;;;;;;34.47;19.17;;;;;;;2.32;100.00;97497.03;5012867;28;20198;-78
2023/03/07 02:39:55;;;;;;;30.43;17.03;;;;;;;2.37;100.00;97489.78;5009806;28;20222;-78
2023/03/07 02:42:27;;;;;;;32.83;17.20;;;;;;;2.28;100.00;97488.56;5007167;28;20280;-78
2023/03/07 02:44:57;;;;;;;29.03;16.20;;;;;;;2.32;100.00;97490.06;5002489;28;20704;-79
2023/03/07 02:47:27;;;;;;;30.17;16.63;;;;;;;2.33;100.00;97485.69;5008340;28;20201;-79
2023/03/07 02:49:55;;;;;;;29.60;15.73;;;;;;;2.25;100.00;97486.97;5003774;28;20205;-78
2023/03/07 02:52:26;;;;;;;30.40;17.13;;;;;;;2.36;100.00;97480.28;5006865;28;20207;-79
2023/03/07 02:54:55;;;;;;;28.80;16.20;;;;;;;2.36;100.00;97485.50;5010051;28;20194;-78
2023/03/07 02:57:25;;;;;;;28.50;16.50;;;;;;;2.33;100.00;97485.69;5013870;28;20191;-78
2023/03/07 02:59:53;;;;;;;31.23;17.17;;;;;;;2.37;100.00;97468.91;5010317;28;20204;-79
2023/03/07 03:02:22;;;;;;;33.10;16.50;;;;;;;2.40;100.00;97471.31;5012365;28;20229;-78
2023/03/07 03:04:50;;;;;;;31.50;17.37;;;;;;;2.32;100.00;97479.63;5013001;28;20222;-78
2023/03/07 03:07:18;;;;;;;29.50;16.57;;;;;;;2.44;100.00;97473.69;5013067;28;20277;-78
2023/03/07 03:09:46;;;;;;;29.40;16.77;;;;;;;2.47;100.00;97470.03;5010368;28;20207;-79
2023/03/07 03:12:14;;;;;;;31.27;17.70;;;;;;;2.43;100.00;97479.00;5006960;28;20374;-78
2023/03/07 03:14:44;;;;;;;31.17;16.63;;;;;;;2.52;100.00;97483.69;5012501;28;20233;-78
2023/03/07 03:17:12;;;;;;;34.20;16.80;;;;;;;2.53;100.00;97472.31;5012884;28;20248;-78
2023/03/07 03:19:42;;;;;;;31.00;16.93;;;;;;;2.43;100.00;97474.63;5012831;28;20206;-78
2023/03/07 03:22:12;;;;;;;30.47;17.37;;;;;;;2.41;100.00;97478.22;5014055;28;20282;-78
2023/03/07 03:24:41;;;;;;;28.47;17.17;;;;;;;2.52;100.00;97476.69;5010062;28;20285;-78
2023/03/07 03:27:10;;;;;;;33.37;18.50;;;;;;;2.53;100.00;97478.38;5012309;28;20201;-79
2023/03/07 03:29:38;;;;;;;29.23;17.40;;;;;;;2.46;100.00;97473.59;5013132;28;20191;-78
2023/03/07 03:32:08;;;;;;;30.03;17.57;;;;;;;2.45;100.00;97467.53;5004337;28;20268;-79
2023/03/07 03:34:37;;;;;;;32.33;17.00;;;;;;;2.49;100.00;97470.78;5011430;28;20205;-78
2023/03/07 03:37:06;;;;;;;30.50;17.13;;;;;;;2.49;100.00;97469.00;5013100;28;20645;-78
2023/03/07 03:39:35;;;;;;;32.87;18.87;;;;;;;2.35;100.00;97465.53;5012152;28;20256;-79
2023/03/07 03:42:04;;;;;;;31.10;16.60;;;;;;;2.58;100.00;97467.63;5010766;28;20202;-78
2023/03/07 03:44:32;;;;;;;30.47;17.27;;;;;;;2.58;100.00;97467.63;5010360;28;20641;-78
2023/03/07 03:47:00;;;;;;;35.53;18.97;;;;;;;2.39;100.00;97456.59;5006888;28;20625;-78
2023/03/07 03:49:30;;;;;;;30.20;17.80;;;;;;;2.57;100.00;97465.94;5014988;28;20206;-78
2023/03/07 03:51:58;;;;;;;30.97;17.07;;;;;;;2.57;100.00;97458.97;5016082;28;20194;-78
2023/03/07 03:54:26;;;;;;;31.03;16.97;;;;;;;2.65;100.00;97455.91;5013052;28;20272;-79
2023/03/07 03:56:55;;;;;;;31.93;18.47;;;;;;;2.63;100.00;97470.84;5009690;28;20610;-78
2023/03/07 03:59:23;;;;;;;36.50;18.10;;;;;;;2.53;100.00;97456.63;5013468;28;20257;-78
2023/03/07 04:01:53;;;;;;;32.50;19.07;;;;;;;2.48;100.00;97456.88;5011714;28;20198;-79
2023/03/07 04:04:22;;;;;;;30.83;18.27;;;;;;;2.54;100.00;97456.53;5010990;28;20721;-78
2023/03/07 04:06:53;;;;;;;33.90;18.03;;;;;;;2.61;100.00;97448.34;5015608;28;20214;-78
2023/03/07 04:09:21;;;;;;;30.87;16.70;;;;;;;2.48;100.00;97456.03;5014585;28;20187;-79
2023/03/07 04:11:49;;;;;;;32.93;18.07;;;;;;;2.46;100.00;97450.06;5013847;28;20229;-79
2023/03/07 04:14:17;;;;;;;32.47;18.20;;;;;;;2.49;100.00;97448.09;5013186;28;20673;-78
2023/03/07 04:16:46;;;;;;;33.13;17.97;;;;;;;2.41;100.00;97449.50;5015440;28;20285;-78
2023/03/07 04:19:14;;;;;;;32.57;17.23;;;;;;;2.55;100.00;97446.91;5015742;28;20198;-78
2023/03/07 04:21:43;;;;;;;34.63;19.23;;;;;;;2.48;100.00;97449.03;5015619;28;20194;-78
2023/03/07 04:24:13;;;;;;;30.97;18.00;;;;;;;2.48;100.00;97443.81;5012569;28;20205;-78
2023/03/07 04:26:41;;;;;;;32.73;17.90;;;;;;;2.50;100.00;97438.50;5015258;28;20272;-78
2023/03/07 04:29:10;;;;;;;33.73;17.87;;;;;;;2.66;100.00;97435.81;5014250;28;20206;-78
2023/03/07 04:31:38;;;;;;;31.40;16.90;;;;;;;2.69;100.00;97435.63;5013380;28;20191;-78
2023/03/07 04:34:06;;;;;;;29.67;17.10;;;;;;;2.67;100.00;97440.97;5016834;28;20241;-78
2023/03/07 04:36:34;;;;;;;28.40;16.60;;;;;;;2.65;100.00;97431.53;5015568;28;20253;-78
2023/03/07 04:39:03;;;;;;;30.13;16.83;;;;;;;2.68;100.00;97423.50;5014404;28;20264;-78
2023/03/07 04:41:33;;;;;;;28.77;17.13;;;;;;;2.77;100.00;97431.63;5016395;28;20198;-78
2023/03/07 04:44:01;;;;;;;28.33;16.47;;;;;;;2.76;100.00;97426.50;5012443;28;20202;-78
2023/03/07 04:46:30;;;;;;;27.53;16.77;;;;;;;2.74;100.00;97428.38;4994756;28;20280;-78
2023/03/07 04:48:58;;;;;;;28.67;16.20;;;;;;;2.80;100.00;97425.41;4980909;28;20202;-78
2023/03/07 04:51:26;;;;;;;30.37;16.47;;;;;;;2.80;100.00;97426.22;5011483;28;20253;-78
2023/03/07 04:53:54;;;;;;;29.93;18.13;;;;;;;2.83;100.00;97425.19;4996065;28;20194;-78
2023/03/07 04:56:23;;;;;;;28.43;16.97;;;;;;;2.86;100.00;97420.63;5015283;28;20225;-78
2023/03/07 04:58:53;;;;;;;27.43;16.93;;;;;;;2.65;100.00;97415.84;5014138;28;20198;-78
2023/03/07 05:01:21;;;;;;;28.57;17.17;;;;;;;2.82;100.00;97413.06;5006171;28;20251;-78
2023/03/07 05:03:49;;;;;;;24.13;14.97;;;;;;;2.87;100.00;97417.06;5012342;28;20245;-78
2023/03/07 05:06:17;;;;;;;28.03;17.03;;;;;;;2.87;100.00;97413.63;5012045;28;20218;-78
2023/03/07 05:08:45;;;;;;;27.73;17.07;;;;;;;2.81;100.00;97411.38;5013601;28;20272;-78
2023/03/07 05:11:14;;;;;;;25.10;15.57;;;;;;;2.86;100.00;97414.53;4990698;28;20214;-78
2023/03/07 05:13:42;;;;;;;23.87;15.37;;;;;;;2.78;100.00;97414.16;5013631;28;20194;-78
2023/03/07 05:16:12;;;;;;;25.87;15.07;;;;;;;2.84;100.00;97404.19;5007294;28;20224;-79
2023/03/07 05:18:40;;;;;;;24.87;15.70;;;;;;;2.81;100.00;97398.31;5014714;28;20194;-79
2023/03/07 05:21:09;;;;;;;28.07;16.57;;;;;;;2.93;100.00;97389.72;5012951;28;20202;-78
2023/03/07 05:23:37;;;;;;;25.80;15.20;;;;;;;2.95;100.00;97398.31;4996403;28;20206;-78
2023/03/07 05:26:05;;;;;;;23.90;14.93;;;;;;;2.93;100.00;97396.72;5015207;28;20245;-78
2023/03/07 05:28:34;;;;;;;29.17;17.03;;;;;;;2.89;100.00;97396.06;5014054;28;20194;-78
2023/03/07 05:31:02;;;;;;;25.53;15.53;;;;;;;3.02;100.00;97388.31;5014541;28;20633;-78
2023/03/07 05:33:32;;;;;;;28.27;16.50;;;;;;;2.95;100.00;97387.84;5014391;28;20226;-79
2023/03/07 05:36:02;;;;;;;30.73;17.97;;;;;;;2.97;100.00;97390.34;5009115;28;20197;-78
2023/03/07 05:38:32;;;;;;;27.10;16.40;;;;;;;2.99;100.00;97388.47;5012920;28;20201;-80
2023/03/07 05:41:00;;;;;;;26.67;16.13;;;;;;;3.03;100.00;97385.59;4977808;28;20197;-78
2023/03/07 05:43:28;;;;;;;27.80;17.37;;;;;;;3.04;100.00;97389.88;5013930;28;20241;-78
2023/03/07 05:45:57;;;;;;;26.90;16.97;;;;;;;3.02;100.00;97381.31;5009457;28;20241;-78
2023/03/07 05:48:25;;;;;;;25.07;15.67;;;;;;;3.15;100.00;97387.44;5007426;28;20293;-80
2023/03/07 05:50:58;;;;;;;25.97;16.53;;;;;;;3.08;100.00;97378.28;5012532;28;20244;-78
2023/03/07 05:53:28;;;;;;;28.00;17.17;;;;;;;3.03;100.00;97384.75;5012101;28;20578;-78
2023/03/07 05:55:56;;;;;;;24.93;15.47;;;;;;;3.05;100.00;97375.03;5009735;28;20260;-78
2023/03/07 05:58:24;;;;;;;24.10;15.03;;;;;;;3.05;100.00;97370.66;5013969;28;20657;-78
2023/03/07 06:00:54;;;;;;;23.93;15.47;;;;;;;3.10;100.00;97373.00;5014097;28;20198;-78
2023/03/07 06:03:22;;;;;;;25.63;16.07;;;;;;;2.89;100.00;97377.75;5013865;28;20268;-78
2023/03/07 06:05:51;;;;;;;25.20;15.43;;;;;;;3.00;100.00;97370.09;5011793;28;20198;-78
2023/03/07 06:08:21;;;;;;;23.33;15.03;;;;;;;3.09;100.00;97363.47;5010793;28;20248;-78
2023/03/07 06:10:50;;;;;;;24.93;15.53;;;;;;;3.05;100.00;97375.88;5009875;28;20226;-78
2023/03/07 06:13:20;;;;;;;24.97;15.40;;;;;;;2.99;100.00;97367.56;5011690;28;20253;-78
2023/03/07 06:15:50;;;;;;;23.40;15.10;;;;;;;3.09;100.00;97379.16;5008980;28;20210;-78
2023/03/07 06:18:20;;;;;;;23.13;14.90;;;;;;;3.21;100.00;97370.53;5005349;28;20198;-78
2023/03/07 06:20:55;;;;;;;23.33;15.03;;;;;;;3.22;100.00;97374.81;4964881;28;20201;-78
2023/03/07 06:23:25;;;;;;;21.43;14.10;;;;;;;3.28;100.00;97373.56;5008090;28;20198;-79
2023/03/07 06:25:54;;;;;;;21.73;14.60;;;;;;;3.14;100.00;97364.84;5006097;28;20210;-78
2023/03/07 06:28:23;;;;;;;23.30;14.90;;;;;;;3.29;100.00;97363.03;5009229;28;20198;-78
2023/03/07 06:30:51;;;;;;;23.67;14.10;;;;;;;3.17;100.00;97364.63;5013172;28;20199;-79
2023/03/07 06:33:20;;;;;;;19.80;13.43;;;;;;;3.23;100.00;97360.81;5014211;28;20198;-78
2023/03/07 06:35:48;;;;;;;22.37;14.70;;;;;;;3.24;100.00;97362.47;5013437;28;20197;-79
2023/03/07 06:38:17;;;;;;;21.17;13.20;;;;;;;3.28;100.00;97365.72;5013088;28;20281;-79
2023/03/07 06:40:56;;;;;;;20.83;13.47;;;;;;;3.31;100.00;97358.53;5010117;28;20688;-78
2023/03/07 06:43:27;;;;;;;22.40;13.63;;;;;;;3.20;100.00;97358.41;5012695;28;20198;-78
2023/03/07 06:45:56;;;;;;;21.53;13.67;;;;;;;3.30;100.00;97356.03;4992012;28;20186;-79
2023/03/07 06:48:25;;;;;;;18.90;13.23;;;;;;;3.35;100.00;97344.31;5010831;28;20213;-78
2023/03/07 06:50:53;;;;;;;22.50;12.97;;;;;;;3.41;100.00;97359.63;5007833;28;20225;-79
2023/03/07 06:53:21;;;;;;;20.53;12.90;;;;;;;3.30;100.00;97351.63;5012548;28;20202;-78
2023/03/07 06:55:52;;;;;;;20.63;13.50;;;;;;;3.29;100.00;97343.91;5011823;28;20214;-78
2023/03/07 06:58:21;;;;;;;19.03;12.93;;;;;;;3.51;100.00;97340.72;4994925;28;20240;-78
2023/03/07 07:00:49;;;;;;;20.03;13.53;;;;;;;3.33;100.00;97350.59;5012759;28;20649;-79
2023/03/07 07:03:19;;;;;;;18.83;12.53;;;;;;;3.40;100.00;97344.88;5012622;28;20190;-78
2023/03/07 07:05:48;;;;;;;20.00;12.47;;;;;;;3.38;100.00;97338.91;5012870;28;20194;-78
2023/03/07 07:08:16;;;;;;;18.47;11.97;;;;;;;3.41;100.00;97335.25;5010805;28;21263;-78
2023/03/07 07:10:44;;;;;;;19.70;13.30;;;;;;;3.56;100.00;97341.25;5011144;28;20692;-79
2023/03/07 07:13:14;;;;;;;18.23;12.40;;;;;;;3.55;100.00;97329.09;5012409;28;20282;-79
2023/03/07 07:15:42;;;;;;;18.60;13.07;;;;;;;3.48;100.00;97330.47;5012895;28;20197;-78
2023/03/07 07:18:13;;;;;;;19.67;12.70;;;;;;;3.54;100.00;97330.06;5012940;28;20202;-78
2023/03/07 07:20:41;;;;;;;22.30;13.90;;;;;;;3.53;100.00;97337.06;5011281;28;20190;-78
2023/03/07 07:23:09;;;;;;;22.07;13.67;;;;;;;3.51;100.00;97335.50;5009917;28;20205;-79
2023/03/07 07:25:38;;;;;;;19.93;12.73;;;;;;;3.54;100.00;97327.44;5015158;28;20213;-79
2023/03/07 07:28:06;;;;;;;22.27;14.40;;;;;;;3.61;100.00;97328.72;5015531;28;20269;-78
2023/03/07 07:30:37;;;;;;;21.97;13.73;;;;;;;3.70;100.00;97336.81;5013976;28;20198;-79
2023/03/07 07:33:06;;;;;;;19.53;13.60;;;;;;;3.59;100.00;97330.59;5016537;28;20252;-78
2023/03/07 07:35:35;;;;;;;19.67;13.73;;;;;;;3.69;100.00;97329.91;5016253;28;20191;-78
2023/03/07 07:38:04;;;;;;;23.70;15.23;;;;;;;3.63;100.00;97332.91;5016693;28;20222;-78
2023/03/07 07:40:33;;;;;;;21.67;14.90;;;;;;;3.78;100.00;97344.16;5015016;28;20320;-79
2023/03/07 07:43:01;;;;;;;24.00;14.90;;;;;;;3.71;100.00;97335.88;5011659;28;20206;-78
2023/03/07 07:45:30;;;;;;;22.10;14.50;;;;;;;3.70;100.00;97339.44;5008771;28;20248;-79
2023/03/07 07:47:59;;;;;;;23.17;14.27;;;;;;;3.80;100.00;97333.59;5016444;28;20272;-78
2023/03/07 07:50:28;;;;;;;21.30;13.37;;;;;;;3.87;100.00;97332.25;5014341;28;20210;-78
2023/03/07 07:52:56;;;;;;;20.77;14.47;;;;;;;3.75;100.00;97336.50;5010717;28;20198;-78
2023/03/07 07:55:25;;;;;;;20.80;12.90;;;;;;;3.86;100.00;97341.00;5011197;28;20194;-78
2023/03/07 07:57:53;;;;;;;19.90;13.20;;;;;;;3.83;100.00;97325.53;5012574;28;20194;-78
2023/03/07 08:00:21;;;;;;;20.47;13.67;;;;;;;3.88;100.00;97331.31;5012422;28;20649;-78
2023/03/07 08:02:51;;;;;;;19.57;13.60;;;;;;;3.86;100.00;97335.78;5015597;28;20198;-78
2023/03/07 08:05:22;;;;;;;20.13;12.97;;;;;;;4.10;100.00;97334.16;5015889;28;20203;-78
2023/03/07 08:07:50;;;;;;;17.93;11.97;;;;;;;4.05;100.00;97335.41;5011827;28;20229;-78
2023/03/07 08:10:19;;;;;;;18.07;11.87;;;;;;;4.00;100.00;97333.09;5009168;28;20760;-79
2023/03/07 08:12:50;;;;;;;18.07;12.13;;;;;;;4.21;100.00;97320.34;5015917;28;20202;-78
2023/03/07 08:15:20;;;;;;;17.00;13.73;;;;;;;4.09;100.00;97319.38;5015500;28;20203;-78
2023/03/07 08:17:50;;;;;;;17.53;12.17;;;;;;;4.13;100.00;97299.88;5015865;28;20209;-78
2023/03/07 08:20:21;;;;;;;15.70;10.80;;;;;;;4.23;100.00;97300.94;4955184;28;20284;-78
2023/03/07 08:22:51;;;;;;;18.00;11.87;;;;;;;4.29;100.00;97304.94;4897165;29;20226;-78
2023/03/07 08:25:22;;;;;;;18.03;12.13;;;;;;;4.27;100.00;97312.06;4893171;29;20206;-78
2023/03/07 08:27:53;;;;;;;18.27;11.30;;;;;;;4.33;100.00;97303.75;4895592;29;20218;-78
2023/03/07 08:30:22;;;;;;;17.23;11.17;;;;;;;4.41;100.00;97303.25;4898154;29;20209;-78
2023/03/07 08:32:52;;;;;;;14.90;10.37;;;;;;;4.49;100.00;97322.75;4860502;29;20200;-78
2023/03/07 08:35:21;;;;;;;14.17;11.43;;;;;;;4.37;100.00;97315.72;4860628;29;20244;-78
2023/03/07 08:37:54;;;;;;;14.90;11.00;;;;;;;4.48;100.00;97288.78;4870658;29;20249;-78
2023/03/07 08:40:25;;;;;;;14.40;9.87;;;;;;;4.55;100.00;97306.59;4930903;28;20203;-78
2023/03/07 08:42:54;;;;;;;17.37;10.73;;;;;;;4.50;100.00;97292.97;4971248;28;20267;-77
2023/03/07 08:45:22;;;;;;;13.43;9.57;;;;;;;4.55;100.00;97292.66;4974197;28;20199;-78
2023/03/07 08:47:52;;;;;;;14.93;10.13;;;;;;;4.60;100.00;97285.28;4973971;28;20241;-78
2023/03/07 08:50:23;;;;;;;13.77;9.97;;;;;;;4.58;100.00;97285.41;4976204;28;20198;-78
2023/03/07 08:52:56;;;;;;;16.17;9.80;;;;;;;4.77;100.00;97279.69;5016079;28;20190;-78
2023/03/07 08:55:24;;;;;;;16.10;9.67;;;;;;;4.73;100.00;97295.75;5007750;28;20709;-78
2023/03/07 08:57:54;;;;;;;13.77;9.33;;;;;;;4.83;100.00;97286.31;5015209;28;20198;-78
2023/03/07 09:00:23;;;;;;;14.90;10.23;;;;;;;4.74;100.00;97292.22;5013694;28;20199;-79
2023/03/07 09:02:53;;;;;;;14.50;10.00;;;;;;;4.71;100.00;97288.00;5016694;28;20202;-77
2023/03/07 09:05:21;;;;;;;15.23;9.83;;;;;;;4.85;100.00;97308.00;5014718;28;20209;-78
2023/03/07 09:07:49;;;;;;;13.20;10.70;;;;;;;4.77;100.00;97294.59;5012222;28;20225;-78
2023/03/07 09:10:21;;;;;;;15.00;10.50;;;;;;;4.79;100.00;97267.31;5009019;28;20222;-78
2023/03/07 09:12:50;;;;;;;15.30;10.47;;;;;;;4.87;100.00;97274.66;5009146;28;20198;-79
2023/03/07 09:15:18;;;;;;;12.90;9.07;;;;;;;4.94;100.00;97275.88;5014619;28;20252;-78
2023/03/07 09:17:47;;;;;;;13.97;10.03;;;;;;;4.92;100.00;97269.88;5011943;28;20268;-78
2023/03/07 09:20:16;;;;;;;14.47;9.37;;;;;;;5.12;100.00;97277.19;5009221;28;20190;-78
2023/03/07 09:22:45;;;;;;;15.07;9.40;;;;;;;5.20;100.00;97278.41;5011869;28;20195;-78
2023/03/07 09:25:14;;;;;;;11.40;8.10;;;;;;;5.23;100.00;97265.91;5012153;28;20206;-78
2023/03/07 09:27:44;;;;;;;12.87;10.80;;;;;;;5.20;100.00;97273.16;5013917;28;20234;-78
2023/03/07 09:30:16;;;;;;;16.30;9.17;;;;;;;5.31;100.00;97278.50;5008386;28;20190;-79
2023/03/07 09:32:45;;;;;;;13.10;9.13;;;;;;;5.43;100.00;97256.56;5011169;28;20201;-79
2023/03/07 09:35:15;;;;;;;11.73;9.53;;;;;;;5.42;100.00;97268.88;4992774;28;20290;-78
2023/03/07 09:37:44;;;;;;;11.43;8.13;;;;;;;5.45;100.00;97280.91;4984408;28;20207;-78
2023/03/07 09:40:18;;;;;;;11.40;7.47;;;;;;;5.55;100.00;97252.19;4987484;28;20195;-77
2023/03/07 09:43:01;;;;;;;13.03;8.83;;;;;;;5.56;100.00;97257.34;4987256;28;20207;-78
2023/03/07 09:45:41;;;;;;;13.30;8.93;;;;;;;5.68;100.00;97266.91;4987754;28;20281;-78
2023/03/07 09:48:38;;;;;;;12.00;8.83;;;;;;;5.60;100.00;97248.28;4992474;28;20219;-78
2023/03/07 09:51:15;;;;;;;11.73;7.77;;;;;;;5.74;100.00;97245.47;4990090;28;20275;-78
2023/03/07 09:53:46;;;;;;;9.37;7.13;;;;;;;5.72;100.00;97254.41;5001138;28;20206;-79
2023/03/07 09:56:22;;;;;;;12.37;7.30;;;;;;;5.82;100.00;97241.41;5010265;28;20236;-78
2023/03/07 09:59:00;;;;;;;21.30;10.27;;;;;;;5.80;100.00;97243.34;5008306;28;20198;-78
2023/03/07 10:01:39;;;;;;;13.23;8.53;;;;;;;5.97;100.00;97230.59;5015269;28;20653;-79
2023/03/07 10:04:17;;;;;;;10.00;7.40;;;;;;;5.81;100.00;97255.50;5014054;28;20246;-79
2023/03/07 10:06:53;;;;;;;10.23;6.53;;;;;;;5.78;100.00;97237.34;5012471;28;20233;-79
2023/03/07 10:09:25;;;;;;;10.70;7.80;;;;;;;5.79;100.00;97232.00;5010078;28;20225;-78
2023/03/07 10:12:16;;;;;;;11.27;8.50;;;;;;;5.58;100.00;97237.03;5011846;28;20313;-79
2023/03/07 10:15:12;;;;;;;9.43;7.13;;;;;;;5.58;100.00;97241.47;5010913;28;20723;-79
2023/03/07 10:17:56;;;;;;;11.87;7.53;;;;;;;5.70;100.00;97235.31;5013325;28;20213;-78
2023/03/07 10:20:35;;;;;;;10.97;7.63;;;;;;;5.57;100.00;97242.41;5009479;28;20199;-78
2023/03/07 10:23:25;;;;;;;10.13;7.10;;;;;;;5.62;100.00;97241.13;5013288;28;20243;-79
2023/03/07 10:25:56;;;;;;;10.53;7.30;;;;;;;5.63;100.00;97245.44;5006002;28;20209;-78
2023/03/07 10:28:28;;;;;;;10.27;7.00;;;;;;;5.69;100.00;97239.72;5013654;28;20638;-78
2023/03/07 10:31:02;;;;;;;10.87;8.90;;;;;;;5.31;100.00;97232.06;5009864;28;20195;-79
2023/03/07 10:33:31;;;;;;;9.63;6.47;;;;;;;5.22;100.00;97250.28;5013719;28;20194;-78
2023/03/07 10:36:06;;;;;;;13.10;8.93;;;;;;;5.16;100.00;97241.06;5015545;28;20198;-78
2023/03/07 10:38:43;;;;;;;12.60;8.83;;;;;;;5.03;100.00;97237.66;5013033;28;20197;-79
2023/03/07 10:41:15;;;;;;;18.10;14.20;;;;;;;5.05;100.00;97249.72;5006193;28;20213;-78
2023/03/07 10:43:45;;;;;;;23.13;15.83;;;;;;;5.02;100.00;97247.31;5009092;28;20199;-78
2023/03/07 10:46:16;;;;;;;35.07;20.10;;;;;;;5.07;100.00;97257.47;5001685;28;20204;-78
2023/03/07 10:48:56;;;;;;;15.37;13.10;;;;;;;4.80;100.00;97252.41;5013249;28;20215;-78
2023/03/07 10:51:43;;;;;;;53.57;32.17;;;;;;;4.69;100.00;97249.72;5011420;28;20276;-78
2023/03/07 10:54:15;;;;;;;76.73;41.97;;;;;;;4.67;100.00;97262.94;5011351;28;20652;-79
2023/03/07 10:57:03;;;;;;;17.60;9.63;;;;;;;4.77;100.00;97240.38;5014288;28;20206;-78
2023/03/07 10:59:31;;;;;;;12.20;7.83;;;;;;;4.80;100.00;97231.44;5010653;28;20229;-78
2023/03/07 11:02:04;;;;;;;15.60;13.40;;;;;;;4.80;100.00;97244.56;5012688;28;20249;-78
2023/03/07 11:04:44;;;;;;;14.83;10.10;;;;;;;4.84;100.00;97243.41;5010874;28;20678;-78
2023/03/07 11:07:27;;;;;;;13.70;9.93;;;;;;;4.97;100.00;97251.22;5010347;28;20194;-79
2023/03/07 11:09:57;;;;;;;10.83;6.67;;;;;;;5.08;100.00;97249.47;5008742;28;20689;-78
2023/03/07 11:12:27;;;;;;;11.33;8.47;;;;;;;4.96;100.00;97237.25;5013625;28;20281;-78
2023/03/07 11:15:10;;;;;;;10.33;8.00;;;;;;;5.00;100.00;97228.22;5010862;28;20226;-78
2023/03/07 11:17:44;;;;;;;14.37;10.33;;;;;;;5.12;100.00;97239.63;5012794;28;20197;-78
2023/03/07 11:20:20;;;;;;;13.47;9.57;;;;;;;5.25;100.00;97229.06;5007505;28;20198;-78
2023/03/07 11:22:49;;;;;;;11.93;9.50;;;;;;;5.18;100.00;97223.41;5009960;28;20194;-79
2023/03/07 11:25:21;;;;;;;11.67;7.80;;;;;;;5.61;100.00;97226.34;5011374;28;20198;-78
2023/03/07 11:27:52;;;;;;;10.43;8.00;;;;;;;5.70;100.00;97211.69;4967957;28;20235;-78
2023/03/07 11:30:24;;;;;;;13.90;7.53;;;;;;;5.91;100.00;97202.19;4971362;28;20223;-78
2023/03/07 11:33:02;;;;;;;10.40;7.87;;;;;;;5.87;100.00;97205.94;4969051;28;20202;-78
2023/03/07 11:35:49;;;;;;;20.87;14.33;;;;;;;5.84;100.00;97221.13;4964594;28;20662;-78
2023/03/07 11:38:29;;;;;;;19.13;14.33;;;;;;;5.75;100.00;97204.28;4972814;28;20203;-78